sensor_id;sensor_type;location;lat;lon;timestamp;P1;durP1;ratioP1;P2;durP2;ratioP2
27201;SDS011;14717;46.924;15.474;2023-02-22T00:01:23;14.68;;;6.85;;
27201;SDS011;14717;46.924;15.474;2023-02-22T00:04:11;14.50;;;6.45;;
27201;SDS011;14717;46.924;15.474;2023-02-22T00:06:37;13.75;;;6.82;;
27201;SDS011;14717;46.924;15.474;2023-02-22T00:09:02;13.07;;;6.45;;
27201;SDS011;14717;46.924;15.474;2023-02-22T00:11:28;15.73;;;7.00;;
27201;SDS011;14717;46.924;15.474;2023-02-22T00:13:55;15.10;;;6.60;;
27201;SDS011;14717;46.924;15.474;2023-02-22T00:16:21;17.65;;;6.95;;
27201;SDS011;14717;46.924;15.474;2023-02-22T00:21:13;15.88;;;6.70;;
27201;SDS011;14717;46.924;15.474;2023-02-22T00:23:41;17.45;;;6.72;;
27201;SDS011;14717;46.924;15.474;2023-02-22T00:26:10;12.65;;;6.57;;
27201;SDS011;14717;46.924;15.474;2023-02-22T00:28:38;17.45;;;6.93;;
27201;SDS011;14717;46.924;15.474;2023-02-22T00:31:04;18.08;;;6.95;;
27201;SDS011;14717;46.924;15.474;2023-02-22T00:33:31;15.40;;;5.68;;
27201;SDS011;14717;46.924;15.474;2023-02-22T00:35:57;14.65;;;6.60;;
27201;SDS011;14717;46.924;15.474;2023-02-22T00:38:22;15.73;;;7.35;;
27201;SDS011;14717;46.924;15.474;2023-02-22T00:40:48;16.42;;;7.13;;
27201;SDS011;14717;46.924;15.474;2023-02-22T00:43:13;13.07;;;5.95;;
27201;SDS011;14717;46.924;15.474;2023-02-22T00:45:39;13.85;;;6.70;;
27201;SDS011;14717;46.924;15.474;2023-02-22T00:48:05;16.95;;;7.40;;
27201;SDS011;14717;46.924;15.474;2023-02-22T00:50:32;17.05;;;7.05;;
27201;SDS011;14717;46.924;15.474;2023-02-22T00:52:58;12.00;;;6.15;;
27201;SDS011;14717;46.924;15.474;2023-02-22T00:55:28;15.38;;;6.35;;
27201;SDS011;14717;46.924;15.474;2023-02-22T00:57:55;15.73;;;6.53;;
27201;SDS011;14717;46.924;15.474;2023-02-22T01:00:23;12.02;;;5.40;;
27201;SDS011;14717;46.924;15.474;2023-02-22T01:05:34;10.52;;;4.82;;
27201;SDS011;14717;46.924;15.474;2023-02-22T01:08:00;8.88;;;4.68;;
27201;SDS011;14717;46.924;15.474;2023-02-22T01:12:54;8.27;;;4.07;;
27201;SDS011;14717;46.924;15.474;2023-02-22T01:17:47;8.98;;;4.63;;
27201;SDS011;14717;46.924;15.474;2023-02-22T01:20:15;7.18;;;4.22;;
27201;SDS011;14717;46.924;15.474;2023-02-22T01:25:14;11.02;;;4.25;;
27201;SDS011;14717;46.924;15.474;2023-02-22T01:27:43;8.05;;;3.33;;
27201;SDS011;14717;46.924;15.474;2023-02-22T01:30:09;9.85;;;4.43;;
27201;SDS011;14717;46.924;15.474;2023-02-22T01:32:37;9.10;;;4.15;;
27201;SDS011;14717;46.924;15.474;2023-02-22T01:35:04;7.80;;;3.63;;
27201;SDS011;14717;46.924;15.474;2023-02-22T01:37:33;8.52;;;3.90;;
27201;SDS011;14717;46.924;15.474;2023-02-22T01:39:59;5.80;;;3.55;;
27201;SDS011;14717;46.924;15.474;2023-02-22T01:42:25;8.38;;;3.72;;
27201;SDS011;14717;46.924;15.474;2023-02-22T01:47:54;9.38;;;3.95;;
27201;SDS011;14717;46.924;15.474;2023-02-22T01:50:21;9.52;;;3.83;;
27201;SDS011;14717;46.924;15.474;2023-02-22T01:52:46;7.70;;;3.78;;
27201;SDS011;14717;46.924;15.474;2023-02-22T01:55:12;7.90;;;3.47;;
27201;SDS011;14717;46.924;15.474;2023-02-22T01:57:38;7.15;;;3.20;;
27201;SDS011;14717;46.924;15.474;2023-02-22T02:00:08;9.00;;;3.45;;
27201;SDS011;14717;46.924;15.474;2023-02-22T02:02:41;5.72;;;3.38;;
27201;SDS011;14717;46.924;15.474;2023-02-22T02:05:10;6.50;;;3.00;;
27201;SDS011;14717;46.924;15.474;2023-02-22T02:07:36;5.03;;;2.90;;
27201;SDS011;14717;46.924;15.474;2023-02-22T02:12:38;8.57;;;3.30;;
27201;SDS011;14717;46.924;15.474;2023-02-22T02:17:40;12.43;;;4.20;;
27201;SDS011;14717;46.924;15.474;2023-02-22T02:23:01;7.03;;;3.70;;
27201;SDS011;14717;46.924;15.474;2023-02-22T02:33:39;8.32;;;3.45;;
27201;SDS011;14717;46.924;15.474;2023-02-22T02:39:06;7.65;;;3.67;;
27201;SDS011;14717;46.924;15.474;2023-02-22T02:41:47;8.15;;;3.85;;
27201;SDS011;14717;46.924;15.474;2023-02-22T02:44:20;8.18;;;4.05;;
27201;SDS011;14717;46.924;15.474;2023-02-22T02:46:55;11.73;;;3.95;;
27201;SDS011;14717;46.924;15.474;2023-02-22T02:49:47;6.93;;;3.55;;
27201;SDS011;14717;46.924;15.474;2023-02-22T02:52:18;5.15;;;3.28;;
27201;SDS011;14717;46.924;15.474;2023-02-22T02:54:47;10.02;;;4.03;;
27201;SDS011;14717;46.924;15.474;2023-02-22T02:59:39;8.20;;;3.60;;
27201;SDS011;14717;46.924;15.474;2023-02-22T03:02:09;7.63;;;3.17;;
27201;SDS011;14717;46.924;15.474;2023-02-22T03:18:08;9.50;;;3.60;;
27201;SDS011;14717;46.924;15.474;2023-02-22T03:20:36;6.55;;;3.13;;
27201;SDS011;14717;46.924;15.474;2023-02-22T03:23:04;6.95;;;3.30;;
27201;SDS011;14717;46.924;15.474;2023-02-22T03:25:47;8.18;;;3.40;;
27201;SDS011;14717;46.924;15.474;2023-02-22T03:28:22;8.02;;;3.10;;
27201;SDS011;14717;46.924;15.474;2023-02-22T03:31:02;7.30;;;3.50;;
27201;SDS011;14717;46.924;15.474;2023-02-22T03:33:45;6.32;;;3.05;;
27201;SDS011;14717;46.924;15.474;2023-02-22T03:36:17;8.48;;;3.45;;
27201;SDS011;14717;46.924;15.474;2023-02-22T03:38:48;8.43;;;3.50;;
27201;SDS011;14717;46.924;15.474;2023-02-22T03:41:19;8.90;;;3.42;;
27201;SDS011;14717;46.924;15.474;2023-02-22T03:43:49;12.88;;;3.45;;
27201;SDS011;14717;46.924;15.474;2023-02-22T03:46:19;7.35;;;3.33;;
27201;SDS011;14717;46.924;15.474;2023-02-22T03:51:27;8.63;;;3.33;;
27201;SDS011;14717;46.924;15.474;2023-02-22T03:53:53;7.45;;;3.58;;
27201;SDS011;14717;46.924;15.474;2023-02-22T03:56:23;8.05;;;3.58;;
27201;SDS011;14717;46.924;15.474;2023-02-22T03:58:52;6.47;;;3.40;;
27201;SDS011;14717;46.924;15.474;2023-02-22T04:01:19;7.78;;;3.30;;
27201;SDS011;14717;46.924;15.474;2023-02-22T04:03:47;7.72;;;3.50;;
27201;SDS011;14717;46.924;15.474;2023-02-22T04:06:13;7.90;;;3.60;;
27201;SDS011;14717;46.924;15.474;2023-02-22T04:08:38;7.70;;;2.78;;
27201;SDS011;14717;46.924;15.474;2023-02-22T04:11:03;8.80;;;3.55;;
27201;SDS011;14717;46.924;15.474;2023-02-22T04:13:29;6.35;;;3.00;;
27201;SDS011;14717;46.924;15.474;2023-02-22T04:15:54;6.53;;;2.80;;
27201;SDS011;14717;46.924;15.474;2023-02-22T04:18:20;7.47;;;3.05;;
27201;SDS011;14717;46.924;15.474;2023-02-22T04:20:45;8.85;;;3.53;;
27201;SDS011;14717;46.924;15.474;2023-02-22T04:23:10;8.27;;;3.15;;
27201;SDS011;14717;46.924;15.474;2023-02-22T04:25:36;6.13;;;3.10;;
27201;SDS011;14717;46.924;15.474;2023-02-22T04:28:01;7.10;;;3.15;;
27201;SDS011;14717;46.924;15.474;2023-02-22T04:30:26;7.63;;;3.40;;
27201;SDS011;14717;46.924;15.474;2023-02-22T04:32:54;8.23;;;3.47;;
27201;SDS011;14717;46.924;15.474;2023-02-22T04:35:20;9.38;;;3.83;;
27201;SDS011;14717;46.924;15.474;2023-02-22T04:37:45;8.73;;;3.42;;
27201;SDS011;14717;46.924;15.474;2023-02-22T04:40:11;6.10;;;3.08;;
27201;SDS011;14717;46.924;15.474;2023-02-22T04:42:36;8.70;;;3.38;;
27201;SDS011;14717;46.924;15.474;2023-02-22T04:45:03;7.22;;;2.80;;
27201;SDS011;14717;46.924;15.474;2023-02-22T04:47:31;5.60;;;3.35;;
27201;SDS011;14717;46.924;15.474;2023-02-22T04:49:57;8.50;;;3.20;;
27201;SDS011;14717;46.924;15.474;2023-02-22T04:52:24;6.40;;;3.25;;
27201;SDS011;14717;46.924;15.474;2023-02-22T04:54:50;8.55;;;3.53;;
27201;SDS011;14717;46.924;15.474;2023-02-22T04:57:15;11.10;;;3.88;;
27201;SDS011;14717;46.924;15.474;2023-02-22T04:59:40;6.80;;;2.90;;
27201;SDS011;14717;46.924;15.474;2023-02-22T05:02:07;6.47;;;3.70;;
27201;SDS011;14717;46.924;15.474;2023-02-22T05:04:32;11.98;;;3.83;;
27201;SDS011;14717;46.924;15.474;2023-02-22T05:06:58;6.07;;;3.67;;
27201;SDS011;14717;46.924;15.474;2023-02-22T05:09:23;8.02;;;3.80;;
27201;SDS011;14717;46.924;15.474;2023-02-22T05:11:48;6.03;;;3.08;;
27201;SDS011;14717;46.924;15.474;2023-02-22T05:14:14;5.32;;;3.25;;
27201;SDS011;14717;46.924;15.474;2023-02-22T05:16:39;11.13;;;3.50;;
27201;SDS011;14717;46.924;15.474;2023-02-22T05:19:04;8.45;;;3.67;;
27201;SDS011;14717;46.924;15.474;2023-02-22T05:21:30;6.70;;;2.95;;
27201;SDS011;14717;46.924;15.474;2023-02-22T05:23:55;7.32;;;3.20;;
27201;SDS011;14717;46.924;15.474;2023-02-22T05:26:21;7.65;;;3.20;;
27201;SDS011;14717;46.924;15.474;2023-02-22T05:28:47;7.95;;;3.78;;
27201;SDS011;14717;46.924;15.474;2023-02-22T05:31:12;7.40;;;3.65;;
27201;SDS011;14717;46.924;15.474;2023-02-22T05:33:38;5.55;;;3.20;;
27201;SDS011;14717;46.924;15.474;2023-02-22T05:36:03;8.05;;;3.40;;
27201;SDS011;14717;46.924;15.474;2023-02-22T05:38:29;7.18;;;3.30;;
27201;SDS011;14717;46.924;15.474;2023-02-22T05:40:55;6.85;;;3.42;;
27201;SDS011;14717;46.924;15.474;2023-02-22T05:43:21;7.25;;;3.90;;
27201;SDS011;14717;46.924;15.474;2023-02-22T05:45:46;8.38;;;3.25;;
27201;SDS011;14717;46.924;15.474;2023-02-22T05:48:11;7.63;;;3.70;;
27201;SDS011;14717;46.924;15.474;2023-02-22T05:50:37;7.15;;;3.72;;
27201;SDS011;14717;46.924;15.474;2023-02-22T05:53:02;6.78;;;3.63;;
27201;SDS011;14717;46.924;15.474;2023-02-22T05:55:29;11.10;;;4.35;;
27201;SDS011;14717;46.924;15.474;2023-02-22T05:57:55;11.05;;;3.78;;
27201;SDS011;14717;46.924;15.474;2023-02-22T06:00:29;7.95;;;3.97;;
27201;SDS011;14717;46.924;15.474;2023-02-22T06:02:56;7.00;;;3.70;;
27201;SDS011;14717;46.924;15.474;2023-02-22T06:05:23;8.35;;;3.92;;
27201;SDS011;14717;46.924;15.474;2023-02-22T06:07:49;6.97;;;3.50;;
27201;SDS011;14717;46.924;15.474;2023-02-22T06:10:15;7.47;;;3.63;;
27201;SDS011;14717;46.924;15.474;2023-02-22T06:12:40;8.73;;;3.67;;
27201;SDS011;14717;46.924;15.474;2023-02-22T06:15:05;6.78;;;3.90;;
27201;SDS011;14717;46.924;15.474;2023-02-22T06:17:31;9.15;;;3.35;;
27201;SDS011;14717;46.924;15.474;2023-02-22T06:19:56;7.70;;;3.40;;
27201;SDS011;14717;46.924;15.474;2023-02-22T06:22:22;8.05;;;3.88;;
27201;SDS011;14717;46.924;15.474;2023-02-22T06:24:47;6.78;;;3.85;;
27201;SDS011;14717;46.924;15.474;2023-02-22T06:27:13;10.93;;;3.78;;
27201;SDS011;14717;46.924;15.474;2023-02-22T06:29:38;7.88;;;3.60;;
27201;SDS011;14717;46.924;15.474;2023-02-22T06:32:03;5.70;;;3.08;;
27201;SDS011;14717;46.924;15.474;2023-02-22T06:34:29;6.88;;;3.47;;
27201;SDS011;14717;46.924;15.474;2023-02-22T06:36:54;6.38;;;3.47;;
27201;SDS011;14717;46.924;15.474;2023-02-22T06:39:20;8.13;;;3.22;;
27201;SDS011;14717;46.924;15.474;2023-02-22T06:41:45;5.28;;;3.35;;
27201;SDS011;14717;46.924;15.474;2023-02-22T06:44:11;7.07;;;3.20;;
27201;SDS011;14717;46.924;15.474;2023-02-22T06:46:38;9.75;;;3.75;;
27201;SDS011;14717;46.924;15.474;2023-02-22T06:49:03;9.48;;;3.63;;
27201;SDS011;14717;46.924;15.474;2023-02-22T06:51:29;7.95;;;3.83;;
27201;SDS011;14717;46.924;15.474;2023-02-22T06:53:59;7.70;;;3.28;;
27201;SDS011;14717;46.924;15.474;2023-02-22T06:56:25;10.68;;;4.70;;
27201;SDS011;14717;46.924;15.474;2023-02-22T06:58:50;10.82;;;4.82;;
27201;SDS011;14717;46.924;15.474;2023-02-22T07:01:15;12.80;;;5.38;;
27201;SDS011;14717;46.924;15.474;2023-02-22T07:03:41;10.38;;;5.28;;
27201;SDS011;14717;46.924;15.474;2023-02-22T07:06:06;10.65;;;4.80;;
27201;SDS011;14717;46.924;15.474;2023-02-22T07:08:32;13.20;;;5.60;;
27201;SDS011;14717;46.924;15.474;2023-02-22T07:10:57;10.05;;;5.25;;
27201;SDS011;14717;46.924;15.474;2023-02-22T07:13:22;11.55;;;5.38;;
27201;SDS011;14717;46.924;15.474;2023-02-22T07:15:48;11.45;;;5.03;;
27201;SDS011;14717;46.924;15.474;2023-02-22T07:18:13;13.48;;;5.30;;
27201;SDS011;14717;46.924;15.474;2023-02-22T07:20:40;11.77;;;5.63;;
27201;SDS011;14717;46.924;15.474;2023-02-22T07:23:05;11.50;;;6.13;;
27201;SDS011;14717;46.924;15.474;2023-02-22T07:25:31;12.88;;;5.68;;
27201;SDS011;14717;46.924;15.474;2023-02-22T07:27:56;16.88;;;5.50;;
27201;SDS011;14717;46.924;15.474;2023-02-22T07:30:24;13.95;;;4.80;;
27201;SDS011;14717;46.924;15.474;2023-02-22T07:32:54;15.07;;;4.88;;
27201;SDS011;14717;46.924;15.474;2023-02-22T07:35:21;17.20;;;5.53;;
27201;SDS011;14717;46.924;15.474;2023-02-22T07:37:49;9.93;;;4.10;;
27201;SDS011;14717;46.924;15.474;2023-02-22T07:40:15;11.15;;;4.78;;
27201;SDS011;14717;46.924;15.474;2023-02-22T07:45:27;7.90;;;4.05;;
27201;SDS011;14717;46.924;15.474;2023-02-22T07:47:54;6.35;;;3.25;;
27201;SDS011;14717;46.924;15.474;2023-02-22T07:50:20;7.28;;;3.13;;
27201;SDS011;14717;46.924;15.474;2023-02-22T07:52:47;9.00;;;2.90;;
27201;SDS011;14717;46.924;15.474;2023-02-22T07:55:15;8.88;;;2.83;;
27201;SDS011;14717;46.924;15.474;2023-02-22T07:57:42;7.65;;;2.95;;
27201;SDS011;14717;46.924;15.474;2023-02-22T08:00:09;7.85;;;3.22;;
27201;SDS011;14717;46.924;15.474;2023-02-22T08:02:35;9.25;;;3.65;;
27201;SDS011;14717;46.924;15.474;2023-02-22T08:05:00;12.55;;;3.72;;
27201;SDS011;14717;46.924;15.474;2023-02-22T08:07:26;11.23;;;4.10;;
27201;SDS011;14717;46.924;15.474;2023-02-22T08:09:51;7.97;;;3.47;;
27201;SDS011;14717;46.924;15.474;2023-02-22T08:12:16;9.32;;;3.78;;
27201;SDS011;14717;46.924;15.474;2023-02-22T08:14:42;7.75;;;3.30;;
27201;SDS011;14717;46.924;15.474;2023-02-22T08:17:07;6.72;;;3.50;;
27201;SDS011;14717;46.924;15.474;2023-02-22T08:19:33;9.63;;;4.03;;
27201;SDS011;14717;46.924;15.474;2023-02-22T08:21:58;7.32;;;4.07;;
27201;SDS011;14717;46.924;15.474;2023-02-22T08:24:24;8.27;;;3.83;;
27201;SDS011;14717;46.924;15.474;2023-02-22T08:26:49;9.55;;;3.38;;
27201;SDS011;14717;46.924;15.474;2023-02-22T08:29:14;8.30;;;3.97;;
27201;SDS011;14717;46.924;15.474;2023-02-22T08:31:40;10.00;;;4.68;;
27201;SDS011;14717;46.924;15.474;2023-02-22T08:34:05;11.18;;;5.10;;
27201;SDS011;14717;46.924;15.474;2023-02-22T08:36:31;11.48;;;4.28;;
27201;SDS011;14717;46.924;15.474;2023-02-22T08:38:58;11.73;;;4.60;;
27201;SDS011;14717;46.924;15.474;2023-02-22T08:41:24;15.02;;;4.55;;
27201;SDS011;14717;46.924;15.474;2023-02-22T08:43:49;10.07;;;4.32;;
27201;SDS011;14717;46.924;15.474;2023-02-22T08:46:15;8.90;;;4.28;;
27201;SDS011;14717;46.924;15.474;2023-02-22T08:51:16;9.27;;;4.03;;
27201;SDS011;14717;46.924;15.474;2023-02-22T08:53:41;10.63;;;4.50;;
27201;SDS011;14717;46.924;15.474;2023-02-22T08:56:07;11.35;;;4.60;;
27201;SDS011;14717;46.924;15.474;2023-02-22T08:58:32;8.98;;;4.45;;
27201;SDS011;14717;46.924;15.474;2023-02-22T09:00:57;9.75;;;4.60;;
27201;SDS011;14717;46.924;15.474;2023-02-22T09:03:23;9.95;;;4.85;;
27201;SDS011;14717;46.924;15.474;2023-02-22T09:05:48;14.60;;;4.78;;
27201;SDS011;14717;46.924;15.474;2023-02-22T09:08:14;15.52;;;4.53;;
27201;SDS011;14717;46.924;15.474;2023-02-22T09:10:40;10.63;;;4.40;;
27201;SDS011;14717;46.924;15.474;2023-02-22T09:13:06;10.63;;;4.60;;
27201;SDS011;14717;46.924;15.474;2023-02-22T09:15:32;10.02;;;4.13;;
27201;SDS011;14717;46.924;15.474;2023-02-22T09:17:59;10.68;;;4.10;;
27201;SDS011;14717;46.924;15.474;2023-02-22T09:20:26;11.15;;;4.55;;
27201;SDS011;14717;46.924;15.474;2023-02-22T09:22:52;17.67;;;4.38;;
27201;SDS011;14717;46.924;15.474;2023-02-22T09:27:48;11.88;;;4.53;;
27201;SDS011;14717;46.924;15.474;2023-02-22T09:30:36;12.18;;;4.40;;
27201;SDS011;14717;46.924;15.474;2023-02-22T09:33:02;10.57;;;4.40;;
27201;SDS011;14717;46.924;15.474;2023-02-22T09:35:33;12.63;;;4.78;;
27201;SDS011;14717;46.924;15.474;2023-02-22T09:38:00;11.38;;;5.20;;
27201;SDS011;14717;46.924;15.474;2023-02-22T09:40:28;13.00;;;6.22;;
27201;SDS011;14717;46.924;15.474;2023-02-22T09:51:31;12.30;;;5.47;;
27201;SDS011;14717;46.924;15.474;2023-02-22T09:54:02;12.98;;;5.65;;
27201;SDS011;14717;46.924;15.474;2023-02-22T09:56:30;15.32;;;6.30;;
27201;SDS011;14717;46.924;15.474;2023-02-22T09:59:01;13.43;;;6.05;;
27201;SDS011;14717;46.924;15.474;2023-02-22T10:04:14;11.50;;;6.03;;
27201;SDS011;14717;46.924;15.474;2023-02-22T10:07:05;11.63;;;5.70;;
27201;SDS011;14717;46.924;15.474;2023-02-22T10:09:54;12.40;;;5.13;;
27201;SDS011;14717;46.924;15.474;2023-02-22T10:12:28;13.93;;;6.10;;
27201;SDS011;14717;46.924;15.474;2023-02-22T10:20:17;13.27;;;5.25;;
27201;SDS011;14717;46.924;15.474;2023-02-22T10:22:51;12.25;;;5.65;;
27201;SDS011;14717;46.924;15.474;2023-02-22T10:25:21;11.48;;;5.22;;
27201;SDS011;14717;46.924;15.474;2023-02-22T10:27:52;11.82;;;5.07;;
27201;SDS011;14717;46.924;15.474;2023-02-22T10:30:26;10.25;;;5.07;;
27201;SDS011;14717;46.924;15.474;2023-02-22T10:35:41;13.13;;;5.05;;
27201;SDS011;14717;46.924;15.474;2023-02-22T10:38:19;11.15;;;5.30;;
27201;SDS011;14717;46.924;15.474;2023-02-22T10:40:55;14.43;;;5.50;;
27201;SDS011;14717;46.924;15.474;2023-02-22T10:43:23;11.55;;;5.53;;
27201;SDS011;14717;46.924;15.474;2023-02-22T10:45:57;15.30;;;5.75;;
27201;SDS011;14717;46.924;15.474;2023-02-22T10:48:27;9.13;;;5.20;;
27201;SDS011;14717;46.924;15.474;2023-02-22T10:51:00;10.38;;;5.50;;
27201;SDS011;14717;46.924;15.474;2023-02-22T10:53:27;14.85;;;5.68;;
27201;SDS011;14717;46.924;15.474;2023-02-22T10:58:29;11.18;;;5.22;;
27201;SDS011;14717;46.924;15.474;2023-02-22T11:01:16;15.52;;;5.32;;
27201;SDS011;14717;46.924;15.474;2023-02-22T11:03:54;9.93;;;5.13;;
27201;SDS011;14717;46.924;15.474;2023-02-22T11:06:25;11.48;;;5.53;;
27201;SDS011;14717;46.924;15.474;2023-02-22T11:11:27;12.30;;;5.70;;
27201;SDS011;14717;46.924;15.474;2023-02-22T11:13:54;10.15;;;5.22;;
27201;SDS011;14717;46.924;15.474;2023-02-22T11:19:01;11.75;;;5.47;;
27201;SDS011;14717;46.924;15.474;2023-02-22T11:21:41;12.77;;;5.40;;
27201;SDS011;14717;46.924;15.474;2023-02-22T11:24:08;12.32;;;5.32;;
27201;SDS011;14717;46.924;15.474;2023-02-22T11:26:39;8.85;;;4.80;;
27201;SDS011;14717;46.924;15.474;2023-02-22T11:29:16;10.60;;;5.05;;
27201;SDS011;14717;46.924;15.474;2023-02-22T11:31:43;12.32;;;5.05;;
27201;SDS011;14717;46.924;15.474;2023-02-22T11:34:30;10.45;;;5.50;;
27201;SDS011;14717;46.924;15.474;2023-02-22T11:37:22;12.63;;;5.60;;
27201;SDS011;14717;46.924;15.474;2023-02-22T11:42:49;13.07;;;5.43;;
27201;SDS011;14717;46.924;15.474;2023-02-22T11:45:32;9.80;;;5.05;;
27201;SDS011;14717;46.924;15.474;2023-02-22T11:48:00;10.52;;;4.95;;
27201;SDS011;14717;46.924;15.474;2023-02-22T11:55:37;9.90;;;4.88;;
27201;SDS011;14717;46.924;15.474;2023-02-22T12:04:22;9.90;;;4.80;;
27201;SDS011;14717;46.924;15.474;2023-02-22T12:21:11;12.55;;;5.25;;
27201;SDS011;14717;46.924;15.474;2023-02-22T12:23:44;10.63;;;4.93;;
27201;SDS011;14717;46.924;15.474;2023-02-22T12:33:49;11.55;;;5.35;;
27201;SDS011;14717;46.924;15.474;2023-02-22T12:36:19;8.93;;;4.72;;
27201;SDS011;14717;46.924;15.474;2023-02-22T12:38:51;11.88;;;5.50;;
27201;SDS011;14717;46.924;15.474;2023-02-22T12:41:31;11.80;;;5.00;;
27201;SDS011;14717;46.924;15.474;2023-02-22T12:44:18;13.80;;;6.35;;
27201;SDS011;14717;46.924;15.474;2023-02-22T12:46:49;10.57;;;4.90;;
27201;SDS011;14717;46.924;15.474;2023-02-22T12:51:56;9.48;;;4.97;;
27201;SDS011;14717;46.924;15.474;2023-02-22T12:57:02;9.05;;;4.78;;
27201;SDS011;14717;46.924;15.474;2023-02-22T13:02:11;9.32;;;4.88;;
27201;SDS011;14717;46.924;15.474;2023-02-22T13:04:42;9.13;;;4.63;;
27201;SDS011;14717;46.924;15.474;2023-02-22T13:20:59;9.65;;;4.90;;
27201;SDS011;14717;46.924;15.474;2023-02-22T13:23:29;12.63;;;5.57;;
27201;SDS011;14717;46.924;15.474;2023-02-22T13:26:13;9.68;;;5.05;;
27201;SDS011;14717;46.924;15.474;2023-02-22T13:28:45;11.07;;;5.05;;
27201;SDS011;14717;46.924;15.474;2023-02-22T13:36:48;11.45;;;5.35;;
27201;SDS011;14717;46.924;15.474;2023-02-22T13:42:11;10.73;;;4.57;;
27201;SDS011;14717;46.924;15.474;2023-02-22T13:54:05;10.75;;;5.10;;
27201;SDS011;14717;46.924;15.474;2023-02-22T13:56:25;12.25;;;5.78;;
27201;SDS011;14717;46.924;15.474;2023-02-22T13:58:52;11.07;;;5.28;;
27201;SDS011;14717;46.924;15.474;2023-02-22T14:06:51;12.60;;;5.55;;
27201;SDS011;14717;46.924;15.474;2023-02-22T14:17:37;12.23;;;6.03;;
27201;SDS011;14717;46.924;15.474;2023-02-22T14:22:40;14.65;;;6.20;;
27201;SDS011;14717;46.924;15.474;2023-02-22T14:27:57;14.73;;;6.60;;
27201;SDS011;14717;46.924;15.474;2023-02-22T14:30:28;13.35;;;6.50;;
27201;SDS011;14717;46.924;15.474;2023-02-22T14:32:57;14.50;;;6.35;;
27201;SDS011;14717;46.924;15.474;2023-02-22T14:35:24;13.70;;;6.35;;
27201;SDS011;14717;46.924;15.474;2023-02-22T14:37:56;14.23;;;6.65;;
27201;SDS011;14717;46.924;15.474;2023-02-22T14:40:25;13.02;;;6.32;;
27201;SDS011;14717;46.924;15.474;2023-02-22T14:43:07;13.27;;;6.18;;
27201;SDS011;14717;46.924;15.474;2023-02-22T14:45:44;16.02;;;6.60;;
27201;SDS011;14717;46.924;15.474;2023-02-22T14:48:29;17.38;;;7.10;;
27201;SDS011;14717;46.924;15.474;2023-02-22T14:51:04;13.95;;;6.47;;
27201;SDS011;14717;46.924;15.474;2023-02-22T14:53:40;13.52;;;6.53;;
27201;SDS011;14717;46.924;15.474;2023-02-22T14:56:22;14.52;;;6.28;;
27201;SDS011;14717;46.924;15.474;2023-02-22T14:58:54;14.68;;;7.18;;
27201;SDS011;14717;46.924;15.474;2023-02-22T15:01:35;14.15;;;6.22;;
27201;SDS011;14717;46.924;15.474;2023-02-22T15:06:50;14.80;;;6.53;;
27201;SDS011;14717;46.924;15.474;2023-02-22T15:09:18;13.20;;;6.38;;
27201;SDS011;14717;46.924;15.474;2023-02-22T15:11:53;16.65;;;8.20;;
27201;SDS011;14717;46.924;15.474;2023-02-22T15:14:29;17.70;;;7.28;;
27201;SDS011;14717;46.924;15.474;2023-02-22T15:17:02;16.42;;;7.68;;
27201;SDS011;14717;46.924;15.474;2023-02-22T15:19:32;17.13;;;7.68;;
27201;SDS011;14717;46.924;15.474;2023-02-22T15:22:01;18.05;;;8.05;;
27201;SDS011;14717;46.924;15.474;2023-02-22T15:24:29;16.83;;;7.93;;
27201;SDS011;14717;46.924;15.474;2023-02-22T15:27:03;17.92;;;7.78;;
27201;SDS011;14717;46.924;15.474;2023-02-22T15:29:37;22.42;;;8.15;;
27201;SDS011;14717;46.924;15.474;2023-02-22T15:35:32;17.35;;;8.52;;
27201;SDS011;14717;46.924;15.474;2023-02-22T15:38:05;18.92;;;8.30;;
27201;SDS011;14717;46.924;15.474;2023-02-22T15:40:36;17.42;;;7.40;;
27201;SDS011;14717;46.924;15.474;2023-02-22T15:43:07;17.90;;;8.05;;
27201;SDS011;14717;46.924;15.474;2023-02-22T15:45:48;18.10;;;7.78;;
27201;SDS011;14717;46.924;15.474;2023-02-22T15:48:15;18.88;;;7.88;;
27201;SDS011;14717;46.924;15.474;2023-02-22T15:53:23;18.88;;;7.93;;
27201;SDS011;14717;46.924;15.474;2023-02-22T15:55:54;18.45;;;7.93;;
27201;SDS011;14717;46.924;15.474;2023-02-22T15:58:24;18.75;;;8.82;;
27201;SDS011;14717;46.924;15.474;2023-02-22T16:01:10;21.65;;;8.73;;
27201;SDS011;14717;46.924;15.474;2023-02-22T16:03:41;17.25;;;8.80;;
27201;SDS011;14717;46.924;15.474;2023-02-22T16:06:29;20.20;;;9.18;;
27201;SDS011;14717;46.924;15.474;2023-02-22T16:09:00;18.08;;;9.15;;
27201;SDS011;14717;46.924;15.474;2023-02-22T16:11:33;23.33;;;8.90;;
27201;SDS011;14717;46.924;15.474;2023-02-22T16:14:04;25.75;;;11.73;;
27201;SDS011;14717;46.924;15.474;2023-02-22T16:16:32;18.38;;;8.77;;
27201;SDS011;14717;46.924;15.474;2023-02-22T16:22:04;20.35;;;9.23;;
27201;SDS011;14717;46.924;15.474;2023-02-22T16:24:37;19.10;;;9.05;;
27201;SDS011;14717;46.924;15.474;2023-02-22T16:29:39;22.20;;;10.88;;
27201;SDS011;14717;46.924;15.474;2023-02-22T16:34:29;22.37;;;9.43;;
27201;SDS011;14717;46.924;15.474;2023-02-22T16:36:55;20.10;;;9.45;;
27201;SDS011;14717;46.924;15.474;2023-02-22T16:41:46;21.40;;;9.57;;
27201;SDS011;14717;46.924;15.474;2023-02-22T16:44:11;20.35;;;9.73;;
27201;SDS011;14717;46.924;15.474;2023-02-22T16:49:03;22.13;;;10.18;;
27201;SDS011;14717;46.924;15.474;2023-02-22T16:51:31;20.63;;;10.63;;
27201;SDS011;14717;46.924;15.474;2023-02-22T16:54:04;23.67;;;10.23;;
27201;SDS011;14717;46.924;15.474;2023-02-22T16:56:30;24.13;;;10.07;;
27201;SDS011;14717;46.924;15.474;2023-02-22T16:58:58;22.52;;;10.32;;
27201;SDS011;14717;46.924;15.474;2023-02-22T17:01:26;20.60;;;9.25;;
27201;SDS011;14717;46.924;15.474;2023-02-22T17:03:52;20.27;;;9.98;;
27201;SDS011;14717;46.924;15.474;2023-02-22T17:08:43;20.95;;;9.80;;
27201;SDS011;14717;46.924;15.474;2023-02-22T17:11:09;17.17;;;9.07;;
27201;SDS011;14717;46.924;15.474;2023-02-22T17:13:36;19.20;;;9.15;;
27201;SDS011;14717;46.924;15.474;2023-02-22T17:16:04;19.35;;;9.70;;
27201;SDS011;14717;46.924;15.474;2023-02-22T17:18:30;20.02;;;9.70;;
27201;SDS011;14717;46.924;15.474;2023-02-22T17:20:58;24.55;;;9.68;;
27201;SDS011;14717;46.924;15.474;2023-02-22T17:23:24;19.83;;;9.38;;
27201;SDS011;14717;46.924;15.474;2023-02-22T17:26:01;21.70;;;9.25;;
27201;SDS011;14717;46.924;15.474;2023-02-22T17:28:27;17.50;;;9.00;;
27201;SDS011;14717;46.924;15.474;2023-02-22T17:33:20;22.20;;;9.43;;
27201;SDS011;14717;46.924;15.474;2023-02-22T17:35:50;17.77;;;8.80;;
27201;SDS011;14717;46.924;15.474;2023-02-22T17:38:16;19.83;;;9.10;;
27201;SDS011;14717;46.924;15.474;2023-02-22T17:40:42;19.83;;;8.73;;
27201;SDS011;14717;46.924;15.474;2023-02-22T17:43:09;23.13;;;8.63;;
27201;SDS011;14717;46.924;15.474;2023-02-22T17:45:38;20.83;;;8.35;;
27201;SDS011;14717;46.924;15.474;2023-02-22T17:48:05;20.38;;;9.45;;
27201;SDS011;14717;46.924;15.474;2023-02-22T17:50:31;22.55;;;9.90;;
27201;SDS011;14717;46.924;15.474;2023-02-22T17:52:57;20.23;;;9.73;;
27201;SDS011;14717;46.924;15.474;2023-02-22T17:55:24;24.33;;;9.90;;
27201;SDS011;14717;46.924;15.474;2023-02-22T17:57:53;22.25;;;10.93;;
27201;SDS011;14717;46.924;15.474;2023-02-22T18:00:27;21.65;;;10.90;;
27201;SDS011;14717;46.924;15.474;2023-02-22T18:03:08;25.23;;;11.18;;
27201;SDS011;14717;46.924;15.474;2023-02-22T18:05:40;23.63;;;10.25;;